Time;durP1;ratioP1;P1;durP2;ratioP2;P2;SDS_P1;SDS_P2;PMS_P1;PMS_P2;Temp;Humidity;BMP_temperature;BMP_pressure;BME280_temperature;BME280_humidity;BME280_pressure;Samples;Min_cycle;Max_cycle;Signal;HPM_P1;HPM_P2
2022/02/12 00:01:19;;;;;;;4.30;2.15;;;;;;;1.79;74.14;101309.88;4985057;28;20057;-56
2022/02/12 00:03:46;;;;;;;5.68;2.20;;;;;;;1.80;73.67;101294.63;4978686;28;21428;-59
2022/02/12 00:06:14;;;;;;;7.97;2.75;;;;;;;1.80;72.81;101299.72;4977459;28;20505;-56
2022/02/12 00:08:41;;;;;;;8.25;2.55;;;;;;;1.80;73.11;101289.50;4978587;28;20129;-57
2022/02/12 00:11:07;;;;;;;7.28;3.63;;;;;;;1.80;73.20;101283.53;4980376;28;20085;-56
2022/02/12 00:13:34;;;;;;;6.45;2.75;;;;;;;1.82;74.28;101281.06;4978123;28;20054;-56
2022/02/12 00:16:01;;;;;;;3.25;2.05;;;;;;;1.83;74.04;101273.47;4981720;28;20104;-57
2022/02/12 00:18:28;;;;;;;5.30;2.85;;;;;;;1.83;73.73;101272.59;4982213;28;20113;-55
2022/02/12 00:20:56;;;;;;;9.57;2.70;;;;;;;1.85;74.79;101273.53;4981360;28;20049;-60
2022/02/12 00:23:23;;;;;;;7.68;3.42;;;;;;;1.87;74.08;101275.41;4982353;28;20054;-58
2022/02/12 00:25:51;;;;;;;5.15;2.45;;;;;;;1.92;74.42;101262.84;4984587;28;20038;-60
2022/02/12 00:28:18;;;;;;;4.30;2.45;;;;;;;1.92;73.84;101263.72;4984665;28;20054;-54
2022/02/12 00:30:45;;;;;;;8.38;2.85;;;;;;;1.94;73.67;101253.59;4978180;28;20046;-58
2022/02/12 00:33:11;;;;;;;7.95;2.50;;;;;;;1.95;73.44;101242.56;4983105;28;20050;-58
2022/02/12 00:35:38;;;;;;;3.97;2.20;;;;;;;1.97;74.03;101246.09;4981651;28;20101;-57
2022/02/12 00:38:04;;;;;;;7.63;2.40;;;;;;;1.98;73.86;101246.94;4984791;28;20490;-58
2022/02/12 00:40:31;;;;;;;8.70;3.00;;;;;;;1.99;74.72;101244.47;4986472;28;20182;-56
2022/02/12 00:42:58;;;;;;;10.77;3.25;;;;;;;2.02;74.27;101233.53;4983604;28;20054;-50
2022/02/12 00:45:24;;;;;;;7.50;2.25;;;;;;;2.00;74.94;101241.16;4982431;28;20510;-57
2022/02/12 00:47:51;;;;;;;11.15;3.08;;;;;;;2.02;74.85;101229.31;4988284;28;20097;-57
2022/02/12 00:50:18;;;;;;;8.43;1.83;;;;;;;2.04;73.42;101231.94;4988746;28;20666;-59
2022/02/12 00:52:44;;;;;;;3.53;2.17;;;;;;;2.05;73.73;101229.47;4983061;28;20454;-57
2022/02/12 00:55:11;;;;;;;8.38;2.55;;;;;;;2.07;74.68;101226.09;4986073;28;20470;-55
2022/02/12 00:57:39;;;;;;;7.80;2.47;;;;;;;2.09;73.92;101220.28;4984003;28;20050;-61
2022/02/12 01:00:06;;;;;;;8.23;2.97;;;;;;;2.06;73.31;101220.09;4982673;28;20050;-54
2022/02/12 01:02:33;;;;;;;6.38;3.22;;;;;;;2.05;73.89;101214.13;4985211;28;20050;-59
2022/02/12 01:05:00;;;;;;;8.93;2.80;;;;;;;2.07;74.53;101204.00;4983005;28;20053;-56
2022/02/12 01:07:27;;;;;;;8.45;3.08;;;;;;;2.09;73.57;101211.75;4987944;28;20053;-57
2022/02/12 01:09:54;;;;;;;6.43;3.17;;;;;;;2.06;74.13;101204.78;4970894;28;20505;-57
2022/02/12 01:12:20;;;;;;;7.65;2.88;;;;;;;2.07;73.82;101196.34;4982466;28;20050;-59
2022/02/12 01:14:47;;;;;;;9.48;2.88;;;;;;;2.07;73.35;101201.44;4989671;28;20046;-59
2022/02/12 01:17:13;;;;;;;8.63;3.33;;;;;;;2.07;74.42;101198.88;4988605;28;20100;-58
2022/02/12 01:19:41;;;;;;;6.07;3.15;;;;;;;2.05;73.13;101188.59;4988908;28;20139;-57
2022/02/12 01:22:08;;;;;;;3.08;2.30;;;;;;;2.07;73.30;101185.22;4989063;28;20054;-58
2022/02/12 01:24:34;;;;;;;3.40;1.98;;;;;;;2.05;74.14;101188.59;4989923;28;20050;-59
2022/02/12 01:27:01;;;;;;;9.57;2.63;;;;;;;2.07;74.28;101182.66;4988394;28;20054;-57
2022/02/12 01:29:28;;;;;;;6.10;3.03;;;;;;;2.05;74.62;101180.91;4986784;28;20076;-55
2022/02/12 01:31:57;;;;;;;6.82;3.40;;;;;;;2.05;73.25;101172.34;4988580;28;20050;-59
2022/02/12 01:34:24;;;;;;;7.80;3.03;;;;;;;2.04;73.22;101173.16;4988529;28;20534;-55
2022/02/12 01:36:51;;;;;;;3.63;2.80;;;;;;;2.04;74.53;101171.50;4989447;28;20050;-60
2022/02/12 01:39:20;;;;;;;5.22;2.70;;;;;;;2.03;74.12;101169.72;4981875;28;20116;-55
2022/02/12 01:41:46;;;;;;;4.43;2.35;;;;;;;2.04;73.91;101163.84;4985894;28;20062;-53
2022/02/12 01:44:13;;;;;;;6.60;2.95;;;;;;;2.02;73.07;101167.97;4986307;28;20687;-59
2022/02/12 01:46:39;;;;;;;6.40;3.08;;;;;;;2.00;73.36;101159.38;4986628;28;20046;-56
2022/02/12 01:49:06;;;;;;;6.10;3.67;;;;;;;2.00;73.56;101159.38;4986418;28;20105;-59
2022/02/12 01:51:33;;;;;;;5.38;2.95;;;;;;;1.98;73.69;101160.97;4986083;28;20124;-59
2022/02/12 01:53:59;;;;;;;5.78;3.00;;;;;;;2.00;72.74;101149.16;4987225;28;20081;-59
2022/02/12 01:56:28;;;;;;;3.58;2.40;;;;;;;2.00;74.37;101148.25;4987344;28;20042;-60
2022/02/12 01:58:54;;;;;;;6.32;2.58;;;;;;;2.04;73.71;101147.63;4988501;28;20050;-57
2022/02/12 02:01:21;;;;;;;6.03;1.30;;;;;;;2.07;72.57;101139.22;4988076;28;20447;-55
2022/02/12 02:03:49;;;;;;;4.00;2.13;;;;;;;2.10;73.96;101131.69;4986081;28;20165;-60
2022/02/12 02:06:16;;;;;;;3.38;2.63;;;;;;;2.13;73.42;101129.31;4987441;28;20042;-53
2022/02/12 02:08:42;;;;;;;5.78;2.40;;;;;;;2.19;74.34;101129.59;4988855;28;20097;-58
2022/02/12 02:11:09;;;;;;;7.45;2.13;;;;;;;2.25;73.43;101117.13;4987399;28;20097;-53
2022/02/12 02:13:36;;;;;;;4.75;1.58;;;;;;;2.27;74.19;101105.28;4986081;28;20359;-54
2022/02/12 02:16:09;;;;;;;7.63;2.78;;;;;;;2.33;74.33;101111.50;4984347;28;20058;-57
2022/02/12 02:18:36;;;;;;;6.03;2.50;;;;;;;2.37;74.67;101113.41;4981483;28;20553;-59
2022/02/12 02:21:06;;;;;;;3.42;2.08;;;;;;;2.42;74.03;101106.81;4989261;28;20105;-58
2022/02/12 02:23:38;;;;;;;6.72;2.17;;;;;;;2.45;74.53;101101.84;4984946;28;20200;-58
2022/02/12 02:26:05;;;;;;;9.32;2.05;;;;;;;2.46;74.32;101097.63;4987491;28;20112;-55
2022/02/12 02:28:32;;;;;;;5.05;2.70;;;;;;;2.50;74.36;101086.72;4984782;28;20054;-55
2022/02/12 02:30:58;;;;;;;3.00;2.05;;;;;;;2.52;73.97;101083.44;4982548;28;20097;-54
2022/02/12 02:33:25;;;;;;;5.00;2.67;;;;;;;2.55;74.92;101081.03;4985629;28;20058;-58
2022/02/12 02:35:52;;;;;;;6.10;2.20;;;;;;;2.59;73.41;101079.47;4995700;28;20781;-57
2022/02/12 02:38:18;;;;;;;5.95;3.30;;;;;;;2.63;73.75;101066.03;4983893;28;20058;-58
2022/02/12 02:40:45;;;;;;;4.13;2.50;;;;;;;2.68;73.79;101053.47;4987990;28;20109;-52
2022/02/12 02:43:12;;;;;;;4.32;3.83;;;;;;;2.69;74.43;101057.75;4986261;28;20054;-57
2022/02/12 02:45:38;;;;;;;5.78;2.28;;;;;;;2.73;73.27;101051.13;4987804;28;20132;-59
2022/02/12 02:48:08;;;;;;;10.50;2.92;;;;;;;2.72;73.86;101045.13;4990444;28;20077;-56
2022/02/12 02:56:12;;;;;;;3.63;2.30;;;;;;;2.75;74.37;101018.78;4984825;28;20502;-57
2022/02/12 02:58:43;;;;;;;6.00;2.47;;;;;;;2.77;74.22;101015.47;4982872;28;20050;-54
2022/02/12 03:01:15;;;;;;;11.60;2.65;;;;;;;2.76;74.18;100997.50;4984644;28;20042;-58
2022/02/12 03:03:45;;;;;;;8.20;2.25;;;;;;;2.80;73.33;100986.59;4984020;28;20097;-61
2022/02/12 03:06:12;;;;;;;7.72;2.20;;;;;;;2.77;73.88;100982.22;4984554;28;20100;-59
2022/02/12 03:08:40;;;;;;;5.20;2.42;;;;;;;2.77;74.09;100976.25;4980563;28;20050;-57
2022/02/12 03:11:10;;;;;;;3.58;0.90;;;;;;;2.81;74.27;100973.03;4984941;28;20454;-60
2022/02/12 03:13:38;;;;;;;6.75;2.63;;;;;;;2.82;72.95;100970.53;4984190;28;20046;-58
2022/02/12 03:16:08;;;;;;;4.18;2.38;;;;;;;2.82;73.46;100960.28;4985286;28;20050;-59
2022/02/12 03:18:37;;;;;;;5.40;2.15;;;;;;;2.86;73.67;100968.97;4983443;28;20393;-58
2022/02/12 03:21:03;;;;;;;4.70;2.05;;;;;;;2.88;73.50;100967.38;4983579;28;20117;-56
2022/02/12 03:23:30;;;;;;;4.25;2.38;;;;;;;2.89;73.52;100955.44;4985874;28;20156;-59
2022/02/12 03:25:57;;;;;;;4.13;2.03;;;;;;;2.89;73.25;100960.53;4984739;28;20046;-57
2022/02/12 03:28:23;;;;;;;7.35;2.83;;;;;;;2.89;73.24;100956.31;4985798;28;20049;-58
2022/02/12 03:30:50;;;;;;;2.83;1.85;;;;;;;2.95;73.53;100954.00;4983140;28;20554;-60
2022/02/12 03:33:17;;;;;;;7.43;1.35;;;;;;;2.95;72.83;100945.47;4983508;28;20105;-57
2022/02/12 03:35:48;;;;;;;4.53;2.53;;;;;;;2.94;73.62;100942.03;4981092;28;20503;-58
2022/02/12 03:38:17;;;;;;;5.28;2.20;;;;;;;2.94;72.89;100928.38;4988311;28;20050;-62
2022/02/12 03:40:47;;;;;;;6.07;2.78;;;;;;;2.94;73.25;100925.81;4984797;28;20050;-59
2022/02/12 03:43:15;;;;;;;6.38;2.85;;;;;;;2.95;73.36;100925.84;4985901;28;20184;-55
2022/02/12 03:45:43;;;;;;;3.90;1.92;;;;;;;2.95;72.58;100919.88;4981569;28;20049;-57
2022/02/12 03:48:10;;;;;;;5.10;2.60;;;;;;;2.95;72.93;100919.88;4988551;28;20047;-56
2022/02/12 03:50:38;;;;;;;2.75;1.75;;;;;;;2.97;72.70;100914.81;4981507;28;20038;-55
2022/02/12 03:53:06;;;;;;;5.07;2.40;;;;;;;2.97;73.25;100918.22;4982656;28;20042;-56
2022/02/12 03:55:37;;;;;;;8.48;2.60;;;;;;;2.97;72.43;100913.13;4984037;28;20125;-55
2022/02/12 03:58:08;;;;;;;6.28;2.25;;;;;;;2.98;73.08;100919.13;4980216;28;20046;-58
2022/02/12 04:00:35;;;;;;;9.43;2.13;;;;;;;3.00;72.46;100913.25;4979445;28;20090;-57
2022/02/12 04:03:02;;;;;;;2.42;1.80;;;;;;;3.00;72.65;100908.13;4982903;28;20050;-60
2022/02/12 04:05:30;;;;;;;10.25;2.15;;;;;;;3.04;72.03;100902.34;4984672;28;20043;-58
2022/02/12 04:07:57;;;;;;;4.35;2.50;;;;;;;3.05;72.68;100891.31;4984518;28;20043;-56
2022/02/12 04:10:24;;;;;;;6.13;2.22;;;;;;;3.05;72.47;100880.19;4983242;28;20058;-58
2022/02/12 04:12:53;;;;;;;5.22;2.33;;;;;;;3.05;73.13;100875.94;4983225;28;20096;-58
2022/02/12 04:15:23;;;;;;;3.70;1.58;;;;;;;3.04;72.79;100884.41;4984011;28;20058;-52
2022/02/12 04:17:50;;;;;;;4.07;2.78;;;;;;;3.06;72.55;100876.81;4981296;28;20055;-56
2022/02/12 04:20:19;;;;;;;5.55;2.72;;;;;;;3.09;72.62;100882.06;4985866;28;20038;-55
2022/02/12 04:22:46;;;;;;;6.75;2.33;;;;;;;3.08;72.92;100876.06;4982365;28;20057;-62
2022/02/12 04:25:15;;;;;;;4.25;2.78;;;;;;;3.10;73.21;100873.56;4984656;28;20640;-54
2022/02/12 04:27:42;;;;;;;5.93;2.47;;;;;;;3.12;72.52;100868.50;4986512;28;20046;-56
2022/02/12 04:30:11;;;;;;;6.35;1.90;;;;;;;3.15;72.52;100855.84;4986059;28;20062;-55
2022/02/12 04:32:38;;;;;;;3.58;2.20;;;;;;;3.18;72.26;100866.22;4981790;28;20046;-54
2022/02/12 04:35:07;;;;;;;2.72;2.08;;;;;;;3.17;72.22;100854.19;4984569;28;20054;-56
2022/02/12 04:37:34;;;;;;;2.75;1.98;;;;;;;3.21;72.36;100856.09;4983736;28;20058;-60
2022/02/12 04:40:02;;;;;;;2.15;1.95;;;;;;;3.26;72.47;100864.81;4987977;28;20058;-55
2022/02/12 04:42:29;;;;;;;5.55;1.92;;;;;;;3.26;72.48;100862.25;4987972;28;20043;-59
2022/02/12 04:44:55;;;;;;;5.65;2.15;;;;;;;3.26;72.78;100852.03;4988299;28;20054;-55
2022/02/12 04:47:22;;;;;;;4.78;1.73;;;;;;;3.26;72.13;100852.03;4995372;28;20655;-57
2022/02/12 04:49:50;;;;;;;7.50;2.45;;;;;;;3.26;72.00;100854.59;4990224;28;20046;-59
2022/02/12 04:52:19;;;;;;;2.70;1.70;;;;;;;3.26;72.96;100839.22;4994127;28;20054;-59
2022/02/12 04:54:46;;;;;;;3.08;1.92;;;;;;;3.27;71.95;100850.34;4989284;28;20097;-56
2022/02/12 04:57:13;;;;;;;7.13;2.92;;;;;;;3.25;71.97;100849.41;4986102;28;20097;-53
2022/02/12 04:59:41;;;;;;;5.43;1.98;;;;;;;3.27;72.32;100835.84;4987863;28;20112;-55
2022/02/12 05:02:07;;;;;;;3.60;1.73;;;;;;;3.30;72.30;100835.09;4985451;28;20058;-59
2022/02/12 05:04:34;;;;;;;4.97;1.95;;;;;;;3.28;72.24;100831.59;4990309;28;20054;-57
2022/02/12 05:07:01;;;;;;;5.68;1.92;;;;;;;3.29;72.40;100823.09;4989855;28;20050;-56
2022/02/12 05:09:27;;;;;;;4.15;2.80;;;;;;;3.29;73.28;100821.44;4989982;28;20042;-56
2022/02/12 05:11:54;;;;;;;1.65;1.25;;;;;;;3.31;72.76;100817.22;4988065;28;20763;-53
2022/02/12 05:14:21;;;;;;;1.55;1.45;;;;;;;3.32;72.18;100813.84;4986012;28;20042;-54
2022/02/12 05:16:48;;;;;;;2.97;1.95;;;;;;;3.34;71.97;100817.34;4994768;28;20093;-61
2022/02/12 05:19:15;;;;;;;3.90;2.17;;;;;;;3.36;72.11;100816.53;4989155;28;20104;-59
2022/02/12 05:21:42;;;;;;;3.70;2.10;;;;;;;3.35;73.01;100815.66;4986384;28;20132;-55
2022/02/12 05:24:08;;;;;;;2.42;1.65;;;;;;;3.38;72.95;100817.47;4988747;28;20077;-57
2022/02/12 05:26:35;;;;;;;4.35;2.28;;;;;;;3.37;73.06;100801.22;4988681;28;20088;-57
2022/02/12 05:29:03;;;;;;;2.75;1.67;;;;;;;3.39;72.74;100809.84;4991239;28;20101;-55
2022/02/12 05:31:29;;;;;;;6.43;1.95;;;;;;;3.42;73.14;100793.72;4991962;28;20053;-54
2022/02/12 05:33:56;;;;;;;9.32;1.88;;;;;;;3.45;72.90;100804.09;4991236;28;20054;-56
2022/02/12 05:36:23;;;;;;;7.57;2.83;;;;;;;3.46;73.41;100801.59;4984180;28;20096;-56
2022/02/12 05:38:50;;;;;;;2.35;1.88;;;;;;;3.49;72.71;100811.09;4987939;28;20049;-57
2022/02/12 05:41:17;;;;;;;4.72;1.92;;;;;;;3.47;73.06;100797.31;4990148;28;20537;-57
2022/02/12 05:43:45;;;;;;;4.20;2.38;;;;;;;3.46;73.42;100801.59;4989595;28;20038;-57
2022/02/12 05:46:12;;;;;;;8.32;2.75;;;;;;;3.45;73.07;100789.59;4992184;28;20525;-57
2022/02/12 05:48:39;;;;;;;3.65;0.88;;;;;;;3.47;73.42;100784.53;4989256;28;20395;-55
2022/02/12 05:51:06;;;;;;;4.90;1.80;;;;;;;3.44;73.13;100774.16;4983129;28;20082;-55
2022/02/12 05:53:33;;;;;;;6.28;1.80;;;;;;;3.44;73.62;100762.22;4989598;28;20484;-54
2022/02/12 05:56:00;;;;;;;5.88;2.42;;;;;;;3.45;73.12;100755.44;4986798;28;20078;-59
2022/02/12 05:58:26;;;;;;;5.78;2.33;;;;;;;3.44;73.84;100748.53;4992336;28;20050;-57
2022/02/12 06:00:53;;;;;;;5.05;1.98;;;;;;;3.44;73.76;100745.97;4984268;28;20062;-61
2022/02/12 06:03:20;;;;;;;11.35;2.40;;;;;;;3.44;73.37;100735.75;4990619;28;20145;-58
2022/02/12 06:05:46;;;;;;;8.52;2.00;;;;;;;3.44;73.89;100725.50;4987968;28;20490;-59
2022/02/12 06:08:13;;;;;;;5.30;0.98;;;;;;;3.42;73.59;100724.59;4989948;28;20379;-58
2022/02/12 06:10:44;;;;;;;3.38;2.00;;;;;;;3.39;73.27;100730.47;4986918;28;20531;-59
2022/02/12 06:13:11;;;;;;;6.82;2.10;;;;;;;3.40;73.84;100723.63;4986736;28;20050;-61
2022/02/12 06:15:38;;;;;;;5.72;0.80;;;;;;;3.40;74.21;100721.06;4989206;28;20449;-60
2022/02/12 06:18:05;;;;;;;5.82;2.20;;;;;;;3.42;73.78;100719.47;4986020;28;20051;-60
2022/02/12 06:20:32;;;;;;;4.63;1.90;;;;;;;3.38;74.29;100715.03;4987774;28;20046;-55
2022/02/12 06:22:59;;;;;;;7.90;2.78;;;;;;;3.39;73.59;100715.09;4988563;28;20093;-61
2022/02/12 06:25:27;;;;;;;10.60;3.13;;;;;;;3.39;73.56;100711.66;4986282;28;20096;-59
2022/02/12 06:27:57;;;;;;;9.95;2.55;;;;;;;3.37;73.55;100709.03;4990610;28;20506;-55
2022/02/12 06:30:24;;;;;;;8.85;2.38;;;;;;;3.36;74.21;100698.72;4985623;28;20062;-57
2022/02/12 06:32:51;;;;;;;4.80;2.00;;;;;;;3.36;73.78;100711.53;4985915;28;20695;-55
2022/02/12 06:35:18;;;;;;;8.52;2.45;;;;;;;3.37;73.79;100713.31;4988343;28;20100;-60
2022/02/12 06:37:45;;;;;;;3.80;2.10;;;;;;;3.37;74.36;100700.50;4987676;28;20054;-57
2022/02/12 06:40:13;;;;;;;9.07;2.38;;;;;;;3.36;73.87;100691.03;4987636;28;20093;-58
2022/02/12 06:42:40;;;;;;;5.75;2.15;;;;;;;3.33;74.32;100682.44;4986060;28;20055;-58
2022/02/12 06:45:08;;;;;;;4.72;1.95;;;;;;;3.34;74.36;100684.19;4985454;28;20154;-59
2022/02/12 06:47:36;;;;;;;2.95;2.15;;;;;;;3.33;74.45;100677.34;4989883;28;20046;-55
2022/02/12 06:50:04;;;;;;;4.90;2.22;;;;;;;3.37;74.21;100687.69;4984301;28;20108;-58
2022/02/12 06:52:30;;;;;;;6.43;1.13;;;;;;;3.34;75.15;100681.63;4987092;28;20364;-57
2022/02/12 06:54:57;;;;;;;6.65;2.25;;;;;;;3.38;73.98;100684.31;4987078;28;20050;-58
2022/02/12 06:57:23;;;;;;;3.67;2.28;;;;;;;3.36;73.99;100676.56;4990251;28;20041;-57
2022/02/12 06:59:50;;;;;;;5.95;2.85;;;;;;;3.40;74.61;100673.31;4982066;28;20078;-57
2022/02/12 07:02:18;;;;;;;3.72;2.67;;;;;;;3.39;74.12;100680.91;4986050;28;20053;-59
2022/02/12 07:04:45;;;;;;;6.47;2.67;;;;;;;3.40;74.79;100672.41;4980669;28;20055;-54
2022/02/12 07:07:11;;;;;;;3.17;2.13;;;;;;;3.36;74.37;100675.69;4985642;28;20046;-59
2022/02/12 07:09:39;;;;;;;10.38;1.38;;;;;;;3.38;74.82;100674.06;4990524;28;20057;-56
2022/02/12 07:12:07;;;;;;;6.15;1.02;;;;;;;3.36;75.31;100670.56;4990781;28;20046;-55
2022/02/12 07:14:33;;;;;;;3.95;2.13;;;;;;;3.33;74.22;100674.78;4991861;28;20538;-57
2022/02/12 07:17:00;;;;;;;6.03;2.38;;;;;;;3.32;75.15;100670.44;4992100;28;20117;-59
2022/02/12 07:19:26;;;;;;;3.13;1.98;;;;;;;3.32;74.46;100675.56;4984108;28;20046;-52
2022/02/12 07:21:53;;;;;;;3.72;1.80;;;;;;;3.32;75.04;100680.69;4986240;28;20089;-56
2022/02/12 07:24:19;;;;;;;8.77;2.47;;;;;;;3.33;75.24;100679.91;4989665;28;20050;-54
2022/02/12 07:26:46;;;;;;;2.55;0.95;;;;;;;3.37;75.07;100677.44;4982301;28;20470;-61
2022/02/12 07:29:13;;;;;;;7.07;2.33;;;;;;;3.38;75.83;100674.91;4981792;28;20093;-58
2022/02/12 07:31:39;;;;;;;5.05;2.10;;;;;;;3.39;75.33;100668.13;4979667;28;20046;-58
2022/02/12 07:34:07;;;;;;;3.88;1.80;;;;;;;3.39;75.64;100670.69;4981341;28;20054;-57
2022/02/12 07:36:34;;;;;;;4.40;2.03;;;;;;;3.42;74.92;100668.25;4976333;28;20051;-58
2022/02/12 07:39:00;;;;;;;7.20;2.35;;;;;;;3.45;74.54;100660.66;4980930;28;20073;-58
2022/02/12 07:41:32;;;;;;;3.45;2.03;;;;;;;3.44;75.62;100648.66;4980898;28;20042;-51
2022/02/12 07:44:00;;;;;;;4.93;2.30;;;;;;;3.45;75.08;100650.44;4984447;28;20058;-61
2022/02/12 07:46:27;;;;;;;10.00;1.02;;;;;;;3.47;75.10;100647.09;4983484;28;20073;-55
2022/02/12 07:48:53;;;;;;;9.45;3.25;;;;;;;3.50;74.88;100648.00;4985151;28;20128;-58
2022/02/12 07:51:20;;;;;;;5.80;2.17;;;;;;;3.53;75.49;100643.88;4987016;28;20121;-56
2022/02/12 07:53:46;;;;;;;6.45;1.98;;;;;;;3.55;74.97;100647.34;4980596;28;20055;-62
2022/02/12 07:56:13;;;;;;;6.30;2.95;;;;;;;3.58;75.44;100637.22;4979336;28;20047;-58
2022/02/12 07:58:40;;;;;;;17.05;3.17;;;;;;;3.61;75.34;100636.47;4982507;28;20841;-56
2022/02/12 08:01:06;;;;;;;4.63;1.95;;;;;;;3.64;74.70;100640.84;4983259;28;20065;-56
2022/02/12 08:03:33;;;;;;;3.92;2.28;;;;;;;3.65;74.79;100637.47;4982340;28;20117;-59
2022/02/12 08:06:01;;;;;;;8.68;2.95;;;;;;;3.72;74.61;100630.03;4982443;28;20098;-58
2022/02/12 08:08:27;;;;;;;10.35;1.85;;;;;;;3.72;74.80;100639.41;4975413;28;20120;-57
2022/02/12 08:11:29;;;;;;;6.38;1.20;;;;;;;3.76;75.10;100631.03;4981734;28;20446;-56
2022/02/12 08:13:40;;;;;;;6.85;2.58;;;;;;;3.81;74.50;100634.59;4975528;28;20046;-57
2022/02/12 08:16:07;;;;;;;6.95;2.40;;;;;;;3.88;74.18;100635.66;4986246;28;20050;-58
2022/02/12 08:18:33;;;;;;;5.78;2.85;;;;;;;3.94;74.17;100635.00;4982141;28;20050;-57
2022/02/12 08:21:00;;;;;;;4.72;2.38;;;;;;;3.97;74.22;100635.13;4984219;28;20055;-60
2022/02/12 08:23:26;;;;;;;3.15;2.33;;;;;;;3.99;73.67;100648.88;4983858;28;20497;-56
2022/02/12 08:25:53;;;;;;;9.95;3.03;;;;;;;4.01;73.93;100642.09;4984675;28;20573;-59
2022/02/12 08:28:20;;;;;;;7.82;2.80;;;;;;;4.05;73.56;100633.69;4988782;28;20145;-56
2022/02/12 08:30:46;;;;;;;3.83;1.02;;;;;;;4.08;73.00;100633.78;4985473;28;20066;-57
2022/02/12 08:33:13;;;;;;;9.57;1.65;;;;;;;4.14;72.96;100632.25;4986074;28;20053;-60
2022/02/12 08:35:55;;;;;;;11.20;3.08;;;;;;;4.18;72.85;100611.88;4986679;28;20089;-60
2022/02/12 08:38:22;;;;;;;4.18;1.30;;;;;;;4.22;72.29;100610.31;4988369;28;20054;-58
2022/02/12 08:40:49;;;;;;;6.78;2.00;;;;;;;4.23;72.25;100618.03;4986756;28;20057;-60
2022/02/12 08:43:15;;;;;;;5.95;1.13;;;;;;;4.28;72.18;100605.38;4986798;28;20407;-60
2022/02/12 08:45:42;;;;;;;5.63;2.45;;;;;;;4.32;71.78;100606.34;4983725;28;20051;-58
2022/02/12 08:48:10;;;;;;;5.30;1.10;;;;;;;4.39;71.68;100609.97;4988726;28;20502;-57
2022/02/12 08:50:37;;;;;;;7.75;2.17;;;;;;;4.42;71.57;100604.94;4983842;28;20058;-57
2022/02/12 08:53:04;;;;;;;10.18;2.95;;;;;;;4.46;71.86;100604.22;4985585;28;20061;-54
2022/02/12 08:55:31;;;;;;;5.88;2.67;;;;;;;4.49;71.07;100599.16;4988408;28;20078;-59
2022/02/12 08:57:57;;;;;;;3.15;2.80;;;;;;;4.54;70.69;100597.63;4987386;28;20121;-59
2022/02/12 09:00:24;;;;;;;4.90;1.05;;;;;;;4.55;70.87;100594.22;4984365;28;20144;-59
2022/02/12 09:03:10;;;;;;;5.53;3.10;;;;;;;4.62;70.83;100585.91;4985880;28;20070;-55
2022/02/12 09:05:37;;;;;;;9.27;2.53;;;;;;;4.67;69.55;100585.16;4981726;28;20081;-56
2022/02/12 09:08:04;;;;;;;4.07;2.08;;;;;;;4.72;70.08;100581.03;4985076;28;20051;-58
2022/02/12 09:10:30;;;;;;;4.43;1.15;;;;;;;4.75;69.49;100570.88;4985090;28;20647;-57
2022/02/12 09:12:57;;;;;;;5.13;1.02;;;;;;;4.78;69.22;100583.78;4987656;28;20467;-55
2022/02/12 09:15:24;;;;;;;4.07;2.67;;;;;;;4.81;69.73;100576.19;4985605;28;20054;-56
2022/02/12 09:17:51;;;;;;;2.95;1.02;;;;;;;4.82;69.46;100572.78;4986566;28;20376;-55
2022/02/12 09:20:18;;;;;;;7.88;1.15;;;;;;;4.85;69.61;100572.00;4988487;28;20462;-58
2022/02/12 09:22:45;;;;;;;7.13;1.13;;;;;;;4.88;68.66;100572.97;4984126;28;20042;-59
2022/02/12 09:25:12;;;;;;;5.20;2.55;;;;;;;4.89;68.97;100572.16;4985251;28;20065;-60
2022/02/12 09:27:39;;;;;;;2.80;1.02;;;;;;;4.91;68.83;100581.59;4985749;28;20049;-60
2022/02/12 09:30:08;;;;;;;4.35;2.25;;;;;;;4.89;68.45;100582.41;4991023;28;20048;-59
2022/02/12 09:32:34;;;;;;;8.10;2.78;;;;;;;4.93;69.14;100569.69;4987375;28;20039;-58
2022/02/12 09:35:01;;;;;;;5.13;3.20;;;;;;;4.95;67.92;100568.00;4990973;28;20549;-61
2022/02/12 09:37:28;;;;;;;8.43;3.00;;;;;;;5.01;68.72;100565.63;4991280;28;20054;-55
2022/02/12 09:39:54;;;;;;;3.45;2.03;;;;;;;5.05;68.15;100569.13;4989733;28;20058;-61
2022/02/12 09:42:21;;;;;;;8.85;1.20;;;;;;;5.12;68.54;100571.94;4987969;28;20101;-58
2022/02/12 09:44:48;;;;;;;5.50;1.33;;;;;;;5.20;67.97;100564.44;4989257;28;20050;-58
2022/02/12 09:47:47;;;;;;;5.18;2.50;;;;;;;5.35;67.36;100563.13;4990092;28;20100;-61
2022/02/12 09:50:18;;;;;;;4.10;3.60;;;;;;;5.57;66.64;100559.41;4986742;28;20604;-57
2022/02/12 09:52:49;;;;;;;7.00;2.85;;;;;;;5.84;66.30;100558.38;4985222;28;20569;-58
2022/02/12 09:55:17;;;;;;;6.20;2.25;;;;;;;6.17;66.75;100552.34;4989283;28;20054;-58
2022/02/12 09:57:43;;;;;;;9.30;1.48;;;;;;;6.53;65.23;100549.72;4989306;28;20477;-61
2022/02/12 10:00:14;;;;;;;3.92;1.00;;;;;;;6.69;63.63;100540.63;4990175;28;20054;-59
2022/02/12 10:02:40;;;;;;;;;;;;;;;6.73;63.22;100531.25;4984710;28;20042;-55
2022/02/12 10:05:29;;;;;;;7.85;2.88;;;;;;;6.99;63.86;100523.19;4988611;28;19996;-57
2022/02/12 10:08:15;;;;;;;4.75;2.53;;;;;;;7.09;61.16;100514.78;4987011;28;20057;-57
2022/02/12 10:10:45;;;;;;;2.90;1.35;;;;;;;7.00;62.61;100494.00;4990852;28;20507;-61
2022/02/12 10:13:15;;;;;;;3.30;1.10;;;;;;;6.85;62.00;100505.75;4989582;28;20050;-59
2022/02/12 10:15:46;;;;;;;8.90;3.47;;;;;;;6.71;63.02;100476.28;4988714;28;20050;-62
2022/02/12 10:18:13;;;;;;;5.28;3.58;;;;;;;6.63;62.57;100474.44;4988733;28;20058;-57
2022/02/12 10:20:43;;;;;;;6.40;2.90;;;;;;;6.61;62.64;100468.38;4986825;28;20046;-54
2022/02/12 10:23:19;;;;;;;6.35;1.25;;;;;;;6.54;63.18;100463.94;4988606;28;20047;-59
2022/02/12 10:25:50;;;;;;;4.40;0.93;;;;;;;6.60;63.81;100471.78;4991136;28;20050;-59
2022/02/12 10:28:18;;;;;;;2.80;2.47;;;;;;;6.75;63.29;100460.06;4985658;28;20549;-57
2022/02/12 10:30:46;;;;;;;9.82;2.80;;;;;;;6.92;62.88;100450.94;4984377;28;20046;-61
2022/02/12 10:33:13;;;;;;;3.53;0.95;;;;;;;7.02;62.60;100451.09;4986482;28;20046;-60
2022/02/12 10:35:41;;;;;;;8.02;2.38;;;;;;;7.04;61.11;100449.44;4993306;28;20058;-59
2022/02/12 10:38:15;;;;;;;3.90;3.03;;;;;;;7.07;61.38;100449.50;4988256;28;20050;-60
2022/02/12 10:40:42;;;;;;;4.38;2.33;;;;;;;7.32;61.77;100435.34;4990440;28;20057;-60
2022/02/12 10:43:09;;;;;;;7.00;1.27;;;;;;;7.84;61.59;100446.47;4985257;28;20046;-59
2022/02/12 10:45:36;;;;;;;9.77;2.42;;;;;;;8.34;60.89;100419.63;4987114;28;20050;-59
2022/02/12 10:48:03;;;;;;;3.03;1.00;;;;;;;8.27;57.94;100422.97;4988624;28;20062;-55
2022/02/12 10:50:31;;;;;;;6.50;2.95;;;;;;;8.21;58.31;100418.59;4988806;28;20081;-56
2022/02/12 10:53:02;;;;;;;8.38;1.48;;;;;;;8.32;59.16;100415.28;4988011;28;20123;-58
2022/02/12 10:55:35;;;;;;;5.35;1.13;;;;;;;8.49;58.31;100403.44;4986038;28;20050;-55
2022/02/12 10:58:05;;;;;;;6.60;0.95;;;;;;;8.44;56.29;100394.78;4988108;28;20072;-59
2022/02/12 11:00:33;;;;;;;;;;;;;;;8.15;57.05;100402.16;4988622;28;20400;-60
2022/02/12 11:03:01;;;;;;;9.98;0.90;;;;;;;8.00;57.99;100393.38;4985079;28;19926;-59
2022/02/12 11:05:28;;;;;;;6.40;1.67;;;;;;;7.87;58.51;100397.47;4988072;28;20046;-57
2022/02/12 11:07:54;;;;;;;5.85;1.00;;;;;;;7.77;58.57;100395.66;4986432;28;20038;-55
2022/02/12 11:10:22;;;;;;;4.50;1.20;;;;;;;7.77;59.00;100400.81;4986161;28;20061;-61
2022/02/12 11:12:49;;;;;;;5.30;1.42;;;;;;;7.77;59.31;100400.81;4987615;28;20715;-58
2022/02/12 11:15:16;;;;;;;4.50;1.20;;;;;;;7.81;59.68;100412.91;4984916;28;20093;-57
2022/02/12 11:18:07;;;;;;;4.68;1.00;;;;;;;7.72;59.02;100401.59;4988914;28;20042;-57
2022/02/12 11:20:35;;;;;;;4.13;1.50;;;;;;;7.70;59.59;100400.69;4984477;28;20051;-60
2022/02/12 11:23:24;;;;;;;3.20;1.13;;;;;;;7.65;59.41;100407.50;4988157;28;20553;-58
2022/02/12 11:25:54;;;;;;;6.80;1.50;;;;;;;7.67;59.04;100395.50;4987300;28;20430;-55
2022/02/12 11:28:30;;;;;;;4.60;1.02;;;;;;;7.72;58.38;100406.75;4989270;28;20058;-55
2022/02/12 11:31:21;;;;;;;4.75;1.00;;;;;;;7.88;59.40;100388.03;4990862;28;20050;-60
2022/02/12 11:34:09;;;;;;;6.43;1.35;;;;;;;8.03;57.78;100398.56;4985319;28;20702;-58
2022/02/12 11:36:38;;;;;;;5.40;1.48;;;;;;;8.12;58.96;100377.19;4983141;28;20042;-59
2022/02/12 11:39:09;;;;;;;7.85;1.50;;;;;;;8.14;57.82;100383.22;4986293;28;20054;-59
2022/02/12 11:41:37;;;;;;;2.80;1.33;;;;;;;8.25;58.89;100357.56;4987139;28;20049;-61
2022/02/12 11:44:04;;;;;;;3.10;1.02;;;;;;;8.24;58.56;100366.13;4986429;28;20109;-55